Time;durP1;ratioP1;P1;durP2;ratioP2;P2;SDS_P1;SDS_P2;PMS_P1;PMS_P2;Temp;Humidity;BMP_temperature;BMP_pressure;BME280_temperature;BME280_humidity;BME280_pressure;Samples;Min_cycle;Max_cycle;Signal;HPM_P1;HPM_P2
2021/01/24 00:01:49;;;;;;;19.23;12.57;;;;;;;1.53;80.12;98663.03;5070836;28;20278;-65
2021/01/24 00:04:15;;;;;;;20.10;13.07;;;;;;;1.54;80.36;98664.72;5055951;28;20255;-64
2021/01/24 00:06:41;;;;;;;18.33;12.23;;;;;;;1.55;80.46;98661.16;5058181;28;20201;-64
2021/01/24 00:09:07;;;;;;;16.70;12.20;;;;;;;1.56;80.42;98652.34;5061451;28;20858;-64
2021/01/24 00:11:33;;;;;;;18.60;13.30;;;;;;;1.57;80.50;98653.19;5059122;28;20209;-63
2021/01/24 00:13:59;;;;;;;19.30;12.87;;;;;;;1.58;80.47;98652.28;5057522;28;20262;-62
2021/01/24 00:16:26;;;;;;;17.63;12.17;;;;;;;1.59;80.72;98657.44;5064565;28;20296;-65
2021/01/24 00:18:52;;;;;;;20.43;12.70;;;;;;;1.60;80.83;98653.88;5063408;28;20593;-64
2021/01/24 00:21:18;;;;;;;17.57;12.93;;;;;;;1.62;80.54;98651.13;5059088;28;20304;-63
2021/01/24 00:23:44;;;;;;;15.17;11.23;;;;;;;1.59;80.31;98651.34;5059966;28;20251;-65
2021/01/24 00:26:10;;;;;;;14.50;10.87;;;;;;;1.55;80.70;98649.81;5060809;28;20209;-64
2021/01/24 00:28:36;;;;;;;15.33;11.30;;;;;;;1.53;80.62;98649.06;5058976;28;20312;-64
2021/01/24 00:31:02;;;;;;;17.77;11.77;;;;;;;1.51;80.82;98643.91;5058188;28;20843;-65
2021/01/24 00:33:29;;;;;;;16.33;11.17;;;;;;;1.51;80.59;98645.69;5059475;28;20217;-64
2021/01/24 00:35:55;;;;;;;15.83;11.53;;;;;;;1.51;80.83;98637.81;5056175;28;20228;-64
2021/01/24 00:38:21;;;;;;;17.47;11.33;;;;;;;1.51;80.52;98635.19;5056554;28;20697;-64
2021/01/24 00:40:47;;;;;;;16.00;11.83;;;;;;;1.52;80.49;98632.47;5058637;28;20232;-63
2021/01/24 00:43:13;;;;;;;14.80;11.27;;;;;;;1.52;81.12;98629.00;5056791;28;20799;-63
2021/01/24 00:45:39;;;;;;;15.30;11.80;;;;;;;1.54;81.06;98635.00;5059002;28;20220;-64
2021/01/24 00:48:05;;;;;;;17.50;12.27;;;;;;;1.56;81.25;98634.00;5055217;28;20207;-64
2021/01/24 00:50:32;;;;;;;17.53;12.43;;;;;;;1.58;80.91;98626.88;5058697;28;20871;-64
2021/01/24 00:52:58;;;;;;;16.50;11.93;;;;;;;1.59;81.03;98622.47;5059636;28;20737;-64
2021/01/24 00:55:24;;;;;;;18.23;11.67;;;;;;;1.61;81.05;98631.09;5062237;28;20209;-64
2021/01/24 00:57:50;;;;;;;17.27;11.97;;;;;;;1.62;81.18;98614.41;5058289;28;20209;-64
2021/01/24 01:00:17;;;;;;;16.57;12.07;;;;;;;1.62;81.17;98620.50;5058451;28;20205;-65
2021/01/24 01:02:43;;;;;;;18.67;12.53;;;;;;;1.64;80.63;98618.63;5063366;28;20323;-65
2021/01/24 01:05:10;;;;;;;18.93;12.60;;;;;;;1.65;80.81;98611.59;5059092;28;20205;-65
2021/01/24 01:07:37;;;;;;;17.00;11.73;;;;;;;1.66;81.11;98614.13;5064996;28;20208;-66
2021/01/24 01:10:04;;;;;;;16.63;12.30;;;;;;;1.67;80.79;98614.97;5057111;28;20240;-66
2021/01/24 01:12:30;;;;;;;17.67;12.83;;;;;;;1.67;81.42;98610.56;5062197;28;20197;-65
2021/01/24 01:14:56;;;;;;;19.70;12.83;;;;;;;1.68;81.36;98614.88;5057974;28;20205;-65
2021/01/24 01:17:22;;;;;;;17.90;11.87;;;;;;;1.70;80.89;98612.19;5062374;28;20261;-64
2021/01/24 01:19:48;;;;;;;18.67;12.47;;;;;;;1.70;81.00;98617.44;5061465;28;20248;-66
2021/01/24 01:22:14;;;;;;;23.10;13.30;;;;;;;1.71;81.03;98616.50;5060972;28;20304;-64
2021/01/24 01:24:40;;;;;;;17.30;11.90;;;;;;;1.72;81.32;98615.56;5061145;28;20648;-66
2021/01/24 01:27:06;;;;;;;15.60;10.93;;;;;;;1.71;81.40;98606.00;5056886;28;20212;-65
2021/01/24 01:29:32;;;;;;;15.03;11.23;;;;;;;1.72;81.04;98612.94;5061058;28;20236;-65
2021/01/24 01:31:58;;;;;;;17.83;11.90;;;;;;;1.70;81.42;98594.66;5056508;28;20641;-65
2021/01/24 01:34:24;;;;;;;17.20;11.17;;;;;;;1.71;81.39;98598.97;5062104;28;20217;-61
2021/01/24 01:36:50;;;;;;;15.47;11.23;;;;;;;1.72;80.79;98599.81;5058860;28;20219;-64
2021/01/24 01:39:16;;;;;;;13.57;10.60;;;;;;;1.72;81.09;98597.19;5064933;28;20228;-65
2021/01/24 01:41:43;;;;;;;15.67;11.07;;;;;;;1.72;81.38;98595.41;5058403;28;20229;-65
2021/01/24 01:44:09;;;;;;;14.23;10.90;;;;;;;1.73;81.27;98598.88;5063591;28;20209;-65
2021/01/24 01:46:36;;;;;;;16.30;11.27;;;;;;;1.73;81.00;98596.25;5064276;28;20201;-64
2021/01/24 01:49:03;;;;;;;15.27;10.87;;;;;;;1.72;81.68;98597.19;5066363;28;20240;-65
2021/01/24 01:51:29;;;;;;;15.23;11.43;;;;;;;1.71;81.49;98595.50;5065217;28;20213;-65
2021/01/24 01:53:55;;;;;;;16.13;10.97;;;;;;;1.69;81.06;98589.50;5058980;28;20247;-65
2021/01/24 01:56:21;;;;;;;16.33;11.50;;;;;;;1.71;81.59;98595.50;5063867;28;20205;-65
2021/01/24 01:58:48;;;;;;;17.63;11.63;;;;;;;1.70;81.32;98604.31;5061492;28;20221;-65
2021/01/24 02:01:25;;;;;;;16.07;10.87;;;;;;;1.68;81.27;98607.03;5061589;28;20225;-63
2021/01/24 02:03:59;;;;;;;14.70;10.27;;;;;;;1.67;81.28;98596.63;5060830;28;20216;-65
2021/01/24 02:06:33;;;;;;;15.07;11.30;;;;;;;1.66;81.26;98590.53;5065641;28;20201;-64
2021/01/24 02:09:05;;;;;;;18.03;10.90;;;;;;;1.66;80.73;98584.44;5065419;28;20414;-65
2021/01/24 02:11:39;;;;;;;16.43;11.13;;;;;;;1.66;81.49;98592.28;5063562;28;20654;-64
2021/01/24 02:14:16;;;;;;;14.40;10.70;;;;;;;1.65;81.05;98587.97;5062694;28;20208;-65
2021/01/24 02:16:45;;;;;;;15.00;11.30;;;;;;;1.64;81.03;98592.38;5067916;28;20222;-65
2021/01/24 02:19:20;;;;;;;14.60;10.73;;;;;;;1.65;81.35;98585.34;5062389;28;20228;-65
2021/01/24 02:21:47;;;;;;;15.03;11.60;;;;;;;1.65;81.27;98585.34;5063887;28;20258;-65
2021/01/24 02:24:15;;;;;;;14.17;11.00;;;;;;;1.64;81.25;98591.53;5058514;28;20213;-64
2021/01/24 02:26:48;;;;;;;13.60;10.27;;;;;;;1.63;80.88;98577.56;5061680;28;20201;-65
2021/01/24 02:29:21;;;;;;;16.10;12.57;;;;;;;1.63;81.24;98572.34;5057727;28;20268;-64
2021/01/24 02:31:49;;;;;;;14.40;10.47;;;;;;;1.64;81.19;98586.28;5063150;28;20201;-65
2021/01/24 02:34:18;;;;;;;16.37;11.30;;;;;;;1.64;80.98;98574.03;5061326;28;20216;-64
2021/01/24 02:36:46;;;;;;;15.23;11.90;;;;;;;1.65;81.29;98578.34;5058932;28;20204;-65
2021/01/24 02:39:14;;;;;;;15.73;11.17;;;;;;;1.64;81.18;98576.66;5063343;28;20774;-64
2021/01/24 02:41:40;;;;;;;14.30;11.13;;;;;;;1.64;81.21;98581.03;5060506;28;20233;-65
2021/01/24 02:44:09;;;;;;;16.67;11.37;;;;;;;1.62;80.75;98572.41;5059596;28;20197;-64
2021/01/24 02:46:36;;;;;;;15.77;11.47;;;;;;;1.61;81.18;98576.00;5054994;28;20202;-63
2021/01/24 02:49:04;;;;;;;16.17;11.57;;;;;;;1.58;81.22;98579.66;5065304;28;20605;-65
2021/01/24 02:51:31;;;;;;;16.97;12.03;;;;;;;1.56;81.48;98575.44;5064503;28;20568;-59
2021/01/24 02:53:58;;;;;;;16.23;12.80;;;;;;;1.54;81.50;98586.00;5062244;28;20251;-65
2021/01/24 02:56:25;;;;;;;14.73;11.90;;;;;;;1.51;80.83;98580.94;5058461;28;20202;-63
2021/01/24 02:58:51;;;;;;;15.57;12.73;;;;;;;1.50;81.07;98578.41;5060801;28;20233;-64
2021/01/24 03:01:17;;;;;;;15.57;11.47;;;;;;;1.51;81.44;98585.34;5063581;28;20216;-64
2021/01/24 03:03:43;;;;;;;18.00;13.60;;;;;;;1.52;81.33;98576.53;5061138;28;20292;-65
2021/01/24 03:06:11;;;;;;;17.63;12.67;;;;;;;1.52;80.95;98577.38;5062650;28;20696;-64
2021/01/24 03:08:38;;;;;;;16.97;12.17;;;;;;;1.53;81.36;98573.00;5059067;28;20775;-64
2021/01/24 03:11:06;;;;;;;19.13;13.60;;;;;;;1.51;80.76;98580.94;5062057;28;20646;-64
2021/01/24 03:13:39;;;;;;;16.93;12.50;;;;;;;1.51;81.24;98580.94;5059817;28;20263;-64
2021/01/24 03:16:06;;;;;;;21.47;14.07;;;;;;;1.51;81.36;98580.09;5061476;28;20208;-62
2021/01/24 03:18:36;;;;;;;16.30;12.40;;;;;;;1.52;81.12;98581.78;5067397;28;20217;-65
2021/01/24 03:21:04;;;;;;;18.20;13.03;;;;;;;1.53;81.10;98580.84;5063122;28;20205;-65
2021/01/24 03:23:33;;;;;;;18.53;13.43;;;;;;;1.54;80.78;98579.91;5067478;28;20567;-65
2021/01/24 03:25:59;;;;;;;19.13;13.33;;;;;;;1.53;81.38;98579.06;5065535;28;20716;-64
2021/01/24 03:28:25;;;;;;;16.90;13.27;;;;;;;1.54;81.34;98579.91;5060704;28;20229;-64
2021/01/24 03:30:52;;;;;;;19.50;12.83;;;;;;;1.52;81.21;98577.38;5062387;28;20209;-65
2021/01/24 03:33:18;;;;;;;17.20;12.87;;;;;;;1.50;81.15;98578.41;5059833;28;20205;-65
2021/01/24 03:35:44;;;;;;;19.60;14.77;;;;;;;1.48;80.73;98582.91;5062707;28;20758;-65
2021/01/24 03:38:10;;;;;;;19.43;13.90;;;;;;;1.45;81.47;98577.81;5058123;28;20597;-66
2021/01/24 03:40:37;;;;;;;21.40;13.80;;;;;;;1.44;80.62;98568.28;5064650;28;20691;-65
2021/01/24 03:43:03;;;;;;;20.30;14.03;;;;;;;1.42;81.21;98568.38;5061219;28;20227;-65
2021/01/24 03:45:29;;;;;;;23.63;14.27;;;;;;;1.39;81.02;98560.69;5060262;28;20213;-64
2021/01/24 03:47:55;;;;;;;18.73;13.87;;;;;;;1.36;81.29;98563.50;5059373;28;20670;-64
2021/01/24 03:50:21;;;;;;;19.07;14.17;;;;;;;1.33;80.99;98568.91;5059404;28;20255;-64
2021/01/24 03:52:47;;;;;;;21.40;14.97;;;;;;;1.31;80.94;98560.28;5058022;28;20204;-65
2021/01/24 03:55:14;;;;;;;21.30;13.50;;;;;;;1.31;81.16;98562.91;5059652;28;20293;-65
2021/01/24 03:57:40;;;;;;;23.07;13.97;;;;;;;1.29;81.34;98554.28;5058317;28;20658;-65
2021/01/24 04:00:08;;;;;;;21.77;13.30;;;;;;;1.28;nan;98563.94;5054211;28;20256;-65
2021/01/24 04:02:34;;;;;;;18.53;13.73;;;;;;;1.27;81.31;98557.00;5060338;28;20712;-64
2021/01/24 04:05:00;;;;;;;21.23;13.67;;;;;;;1.26;80.91;98555.31;5056218;28;20209;-65
2021/01/24 04:07:26;;;;;;;19.10;13.47;;;;;;;1.26;81.09;98559.72;5059921;28;20672;-64
2021/01/24 04:09:52;;;;;;;20.23;13.60;;;;;;;1.25;81.14;98558.06;5060500;28;20229;-65
2021/01/24 04:12:18;;;;;;;19.77;14.10;;;;;;;1.25;81.27;98565.91;5059854;28;20304;-65
2021/01/24 04:14:44;;;;;;;17.87;13.00;;;;;;;1.26;81.29;98563.19;5063464;28;20201;-66
2021/01/24 04:17:11;;;;;;;18.90;13.20;;;;;;;1.26;81.60;98560.56;5057282;28;20206;-65
2021/01/24 04:19:37;;;;;;;18.33;13.60;;;;;;;1.27;81.29;98559.63;5062069;28;20643;-64
2021/01/24 04:22:03;;;;;;;19.90;13.60;;;;;;;1.26;81.53;98552.69;5059878;28;20234;-65
2021/01/24 04:24:29;;;;;;;19.47;13.47;;;;;;;1.27;81.67;98551.75;5064434;28;20394;-64
2021/01/24 04:26:55;;;;;;;21.93;14.17;;;;;;;1.28;81.48;98555.22;5057453;28;20295;-65
2021/01/24 04:29:21;;;;;;;19.27;13.93;;;;;;;1.25;81.62;98548.41;5061384;28;20708;-65
2021/01/24 04:31:48;;;;;;;18.37;14.07;;;;;;;1.24;81.58;98548.50;5059984;28;20197;-64
2021/01/24 04:34:14;;;;;;;19.77;13.67;;;;;;;1.23;81.07;98546.81;5061937;28;20205;-65
2021/01/24 04:36:41;;;;;;;19.33;13.67;;;;;;;1.21;81.58;98549.53;5059777;28;20201;-65
2021/01/24 04:39:07;;;;;;;18.30;13.37;;;;;;;1.20;81.41;98539.97;5062917;28;20709;-63
2021/01/24 04:41:36;;;;;;;19.80;13.23;;;;;;;1.20;81.18;98547.81;5058813;28;20233;-65
2021/01/24 04:44:03;;;;;;;19.37;12.87;;;;;;;1.18;81.34;98546.22;5059347;28;20212;-65
2021/01/24 04:46:29;;;;;;;19.90;13.37;;;;;;;1.16;81.22;98553.34;5056107;28;20202;-61
2021/01/24 04:48:56;;;;;;;19.17;13.53;;;;;;;1.15;81.50;98549.03;5056122;28;20287;-64
2021/01/24 04:51:22;;;;;;;17.40;13.53;;;;;;;1.14;81.59;98542.09;5061895;28;20196;-64
2021/01/24 04:53:48;;;;;;;21.60;13.30;;;;;;;1.12;81.60;98542.16;5058616;28;20201;-65
2021/01/24 04:56:14;;;;;;;19.53;13.40;;;;;;;1.12;81.36;98536.09;5070041;28;20209;-65
2021/01/24 04:58:41;;;;;;;19.07;13.63;;;;;;;1.12;81.05;98541.34;5068717;28;20225;-63
2021/01/24 05:01:09;;;;;;;21.77;14.07;;;;;;;1.11;81.65;98534.41;5075937;28;20747;-65
2021/01/24 05:03:35;;;;;;;17.90;13.07;;;;;;;1.08;81.24;98530.16;5070763;28;20211;-64
2021/01/24 05:06:02;;;;;;;19.20;13.00;;;;;;;1.06;81.63;98526.81;5069265;28;20677;-65
2021/01/24 05:08:30;;;;;;;17.13;12.40;;;;;;;1.02;81.37;98528.78;5068986;28;20721;-63
2021/01/24 05:11:04;;;;;;;19.80;13.57;;;;;;;1.01;81.24;98528.88;5062227;28;20209;-65
2021/01/24 05:13:30;;;;;;;17.17;12.73;;;;;;;0.98;81.37;98527.25;5066700;28;20209;-63
2021/01/24 05:15:57;;;;;;;20.40;13.23;;;;;;;0.97;81.62;98527.34;5071960;28;20215;-65
2021/01/24 05:18:23;;;;;;;20.67;13.33;;;;;;;0.95;81.06;98529.22;5073576;28;20337;-64
2021/01/24 05:20:51;;;;;;;18.47;12.87;;;;;;;0.94;80.97;98527.53;5066708;28;20200;-64
2021/01/24 05:23:20;;;;;;;18.80;13.33;;;;;;;0.94;81.44;98530.13;5070544;28;20729;-65
2021/01/24 05:25:46;;;;;;;20.73;13.97;;;;;;;0.93;81.37;98533.69;5070233;28;20622;-65
2021/01/24 05:28:20;;;;;;;18.03;12.97;;;;;;;0.93;81.27;98536.31;5070814;28;20712;-65
2021/01/24 05:30:46;;;;;;;18.40;13.40;;;;;;;0.90;81.41;98536.47;5068404;28;20250;-64
2021/01/24 05:33:16;;;;;;;18.40;12.90;;;;;;;0.89;81.24;98529.59;5070986;28;20288;-64
2021/01/24 05:35:50;;;;;;;16.47;11.90;;;;;;;0.87;81.15;98536.69;5071941;28;20669;-63
2021/01/24 05:38:22;;;;;;;15.17;12.27;;;;;;;0.84;81.32;98537.69;5072333;28;20220;-64
2021/01/24 05:40:48;;;;;;;14.67;11.57;;;;;;;0.82;81.19;98534.31;5065915;28;20818;-65
2021/01/24 05:43:16;;;;;;;19.53;13.30;;;;;;;0.82;81.16;98533.47;5072723;28;20307;-64
2021/01/24 05:45:43;;;;;;;18.03;12.13;;;;;;;0.80;81.16;98536.19;5073013;28;20262;-64
2021/01/24 05:48:09;;;;;;;19.47;13.13;;;;;;;0.80;81.47;98540.56;5067130;28;20230;-64
2021/01/24 05:50:35;;;;;;;20.43;13.13;;;;;;;0.80;81.20;98545.81;5070804;28;20208;-64
2021/01/24 05:53:04;;;;;;;17.97;12.27;;;;;;;0.78;81.30;98547.69;5064608;28;20208;-64
2021/01/24 05:55:32;;;;;;;18.33;13.17;;;;;;;0.77;81.24;98546.00;5065452;28;20202;-65
2021/01/24 05:57:59;;;;;;;17.07;13.10;;;;;;;0.74;81.47;98543.53;5071567;28;20208;-64
2021/01/24 06:00:26;;;;;;;19.70;13.50;;;;;;;0.72;81.59;98550.66;5070777;28;20201;-64
2021/01/24 06:02:53;;;;;;;19.13;13.10;;;;;;;0.71;81.56;98549.81;5069978;28;20286;-63
2021/01/24 06:05:19;;;;;;;20.17;13.40;;;;;;;0.70;81.45;98556.00;5067559;28;20205;-64
2021/01/24 06:07:45;;;;;;;16.30;11.97;;;;;;;0.69;81.55;98556.91;5070071;28;20212;-64
2021/01/24 06:10:12;;;;;;;19.33;12.73;;;;;;;0.68;81.68;98553.47;5063302;28;20229;-64
2021/01/24 06:12:42;;;;;;;17.60;11.97;;;;;;;0.67;81.46;98551.75;5063217;28;20213;-64
2021/01/24 06:15:12;;;;;;;18.17;12.53;;;;;;;0.65;81.40;98553.63;5062369;28;20269;-64
2021/01/24 06:17:40;;;;;;;17.47;13.03;;;;;;;0.65;81.35;98555.41;5063981;28;20201;-65
2021/01/24 06:20:07;;;;;;;16.67;12.07;;;;;;;0.64;81.26;98553.72;5061718;28;20228;-64
2021/01/24 06:22:42;;;;;;;18.27;13.63;;;;;;;0.63;81.61;98563.34;5061355;28;20234;-64
2021/01/24 06:25:14;;;;;;;19.23;13.47;;;;;;;0.63;81.56;98565.13;5062261;28;20200;-64
2021/01/24 06:27:46;;;;;;;19.17;12.93;;;;;;;0.61;81.85;98567.81;5068691;28;20212;-65
2021/01/24 06:30:16;;;;;;;18.57;13.37;;;;;;;0.60;81.44;98573.13;5070754;28;20229;-64
2021/01/24 06:32:42;;;;;;;15.67;11.97;;;;;;;0.59;81.69;98574.91;5068360;28;20208;-64
2021/01/24 06:35:16;;;;;;;18.83;12.77;;;;;;;0.57;81.50;98578.53;5063394;28;20201;-64
2021/01/24 06:37:57;;;;;;;17.70;12.33;;;;;;;0.56;81.63;98585.56;5070092;28;20963;-65
2021/01/24 06:40:25;;;;;;;19.03;12.93;;;;;;;0.53;81.65;98584.91;5079223;28;20246;-64
2021/01/24 06:42:56;;;;;;;19.87;13.03;;;;;;;0.52;81.77;98593.69;5055250;28;20229;-65
2021/01/24 06:45:42;;;;;;;21.03;13.67;;;;;;;0.51;81.87;98590.22;5067416;28;20216;-65
2021/01/24 06:48:10;;;;;;;19.97;14.30;;;;;;;0.51;81.73;98595.47;5059114;28;20197;-65
2021/01/24 06:50:41;;;;;;;17.03;13.30;;;;;;;0.52;82.01;98596.31;5064184;28;20211;-64
2021/01/24 06:53:09;;;;;;;17.83;12.70;;;;;;;0.52;82.21;98605.00;5069904;28;20208;-64
2021/01/24 06:55:37;;;;;;;20.57;13.60;;;;;;;0.53;82.10;98606.72;5063612;28;20692;-64
2021/01/24 06:58:26;;;;;;;19.30;13.50;;;;;;;0.55;81.92;98610.06;5069793;28;20212;-64
2021/01/24 07:00:53;;;;;;;20.67;13.50;;;;;;;0.55;82.43;98615.28;5059678;28;20201;-64
2021/01/24 07:03:20;;;;;;;19.67;13.50;;;;;;;0.55;82.10;98615.28;5067599;28;20233;-64
2021/01/24 07:05:46;;;;;;;19.07;12.70;;;;;;;0.55;82.34;98620.53;5085130;28;20196;-63
2021/01/24 07:08:31;;;;;;;19.60;13.33;;;;;;;0.57;82.46;98629.16;5064340;28;20218;-64
2021/01/24 07:10:57;;;;;;;22.03;13.83;;;;;;;0.57;82.67;98631.78;5066238;28;20554;-61
2021/01/24 07:13:35;;;;;;;19.03;13.30;;;;;;;0.59;82.56;98636.94;5070709;28;20224;-63
2021/01/24 07:16:03;;;;;;;19.80;13.87;;;;;;;0.60;82.37;98636.00;5065424;28;20193;-64
2021/01/24 07:18:41;;;;;;;21.03;13.43;;;;;;;0.61;82.42;98640.31;5067436;28;20713;-64
2021/01/24 07:21:07;;;;;;;19.63;13.20;;;;;;;0.60;82.47;98642.09;5062322;28;20207;-64
2021/01/24 07:23:34;;;;;;;21.57;13.77;;;;;;;0.58;82.53;98635.25;5065037;28;20205;-64
2021/01/24 07:26:02;;;;;;;17.63;13.27;;;;;;;0.56;82.22;98647.56;5069656;28;20209;-64
2021/01/24 07:28:29;;;;;;;23.00;14.40;;;;;;;0.56;82.87;98651.03;5063986;28;20275;-64
2021/01/24 07:31:01;;;;;;;20.33;14.07;;;;;;;0.58;82.65;98651.81;5064399;28;20209;-62
2021/01/24 07:33:30;;;;;;;19.33;13.07;;;;;;;0.59;82.60;98663.97;5062844;28;20200;-64
2021/01/24 07:36:01;;;;;;;20.33;14.13;;;;;;;0.57;82.77;98660.59;5062641;28;20300;-64
2021/01/24 07:38:27;;;;;;;19.90;13.80;;;;;;;0.56;82.93;98666.75;5061752;28;20228;-62
2021/01/24 07:40:58;;;;;;;20.87;14.33;;;;;;;0.54;82.72;98678.22;5058509;28;20693;-64
2021/01/24 07:43:25;;;;;;;19.87;13.50;;;;;;;0.52;82.70;98674.88;5065117;28;20582;-63
2021/01/24 07:45:52;;;;;;;23.27;14.27;;;;;;;0.52;82.64;98680.13;5066369;28;20208;-64
2021/01/24 07:51:00;;;;;;;24.13;14.93;;;;;;;0.50;82.84;98682.81;5019174;28;20226;-65
2021/01/24 07:53:27;;;;;;;19.30;14.17;;;;;;;0.48;82.88;98691.69;5028888;28;20213;-63
2021/01/24 07:55:53;;;;;;;23.73;14.83;;;;;;;0.47;82.89;98695.22;5035225;28;20213;-65
2021/01/24 07:58:20;;;;;;;22.97;15.43;;;;;;;0.48;82.87;98694.31;5027720;28;20202;-64
2021/01/24 08:00:46;;;;;;;23.30;15.07;;;;;;;0.47;83.11;98696.06;5028483;28;20589;-65
2021/01/24 08:03:18;;;;;;;28.07;16.70;;;;;;;0.47;83.24;98700.47;5026671;28;20230;-64
2021/01/24 08:05:44;;;;;;;30.47;17.03;;;;;;;0.48;83.34;98702.16;5025410;28;20228;-65
2021/01/24 08:08:11;;;;;;;26.20;16.53;;;;;;;0.48;82.95;98710.88;5029920;28;20206;-65
2021/01/24 08:10:37;;;;;;;27.10;16.43;;;;;;;0.48;83.40;98712.63;5027006;28;20226;-65
2021/01/24 08:13:03;;;;;;;26.43;16.37;;;;;;;0.48;83.45;98713.47;5032679;28;20772;-65
2021/01/24 08:15:29;;;;;;;29.97;18.07;;;;;;;0.50;83.57;98716.03;5026132;28;20257;-65
2021/01/24 08:17:58;;;;;;;28.20;18.73;;;;;;;0.49;83.31;98723.03;5035666;28;20201;-65
2021/01/24 08:20:24;;;;;;;27.97;17.97;;;;;;;0.50;83.33;98723.88;5025575;28;20623;-63
2021/01/24 08:22:51;;;;;;;32.60;18.27;;;;;;;0.49;83.61;98725.66;5022779;28;20233;-65
2021/01/24 08:25:18;;;;;;;27.23;18.90;;;;;;;0.48;83.50;98728.34;5028127;28;20206;-65
2021/01/24 08:27:45;;;;;;;33.97;19.47;;;;;;;0.47;83.89;98737.97;5027035;28;20214;-66
2021/01/24 08:30:13;;;;;;;36.70;20.73;;;;;;;0.47;83.59;98731.88;5018875;28;20218;-67
2021/01/24 08:32:40;;;;;;;33.97;20.10;;;;;;;0.46;83.71;98744.13;5021865;28;20199;-65
2021/01/24 08:35:07;;;;;;;34.23;19.80;;;;;;;0.47;83.69;98742.38;5025338;28;20691;-65
2021/01/24 08:37:34;;;;;;;34.03;19.60;;;;;;;0.48;83.91;98751.91;5026687;28;20257;-66
2021/01/24 08:40:00;;;;;;;29.20;18.40;;;;;;;0.48;83.93;98749.31;5027488;28;20226;-66
2021/01/24 08:42:45;;;;;;;36.07;18.17;;;;;;;0.49;84.01;98758.84;5028583;28;20222;-68
2021/01/24 08:45:17;;;;;;;29.70;17.87;;;;;;;0.47;83.93;98758.94;5023253;28;20659;-67
2021/01/24 08:47:50;;;;;;;31.80;18.17;;;;;;;0.49;83.98;98772.78;5026252;28;20232;-67
2021/01/24 08:50:16;;;;;;;28.00;18.63;;;;;;;0.49;84.24;98771.94;5025272;28;20307;-67
2021/01/24 08:52:42;;;;;;;25.23;15.70;;;;;;;0.48;84.24;98773.72;5023713;28;20226;-68
2021/01/24 08:55:08;;;;;;;29.33;17.47;;;;;;;0.49;84.02;98777.19;5016643;28;20211;-68
2021/01/24 08:57:37;;;;;;;24.80;16.40;;;;;;;0.48;84.03;98781.56;5025075;28;20209;-67
2021/01/24 09:00:07;;;;;;;25.00;16.67;;;;;;;0.48;84.13;98786.81;5021980;28;20222;-67
2021/01/24 09:02:35;;;;;;;28.90;17.77;;;;;;;0.48;84.11;98785.97;5016028;28;20637;-65
2021/01/24 09:05:03;;;;;;;29.10;17.10;;;;;;;0.47;84.24;98785.13;5020273;28;20206;-67
2021/01/24 09:07:37;;;;;;;28.07;17.83;;;;;;;0.45;84.34;98786.97;5025351;28;20214;-67
2021/01/24 09:10:17;;;;;;;26.33;16.03;;;;;;;0.45;84.60;98797.44;5014366;28;20226;-67
2021/01/24 09:12:46;;;;;;;26.50;17.30;;;;;;;0.44;84.44;98800.97;5017974;28;20690;-66
2021/01/24 09:15:12;;;;;;;32.67;18.63;;;;;;;0.45;84.44;98797.44;5026948;28;20209;-67
2021/01/24 09:17:38;;;;;;;31.40;18.27;;;;;;;0.47;84.63;98811.31;5025985;28;20540;-65
2021/01/24 09:20:06;;;;;;;27.37;17.83;;;;;;;0.48;84.29;98809.53;5028471;28;20301;-66
2021/01/24 09:22:32;;;;;;;28.87;18.57;;;;;;;0.49;84.49;98806.00;5026658;28;20238;-67
2021/01/24 09:24:58;;;;;;;26.73;18.00;;;;;;;0.50;84.78;98815.53;5026356;28;20220;-67
2021/01/24 09:27:23;;;;;;;29.57;18.93;;;;;;;0.50;84.44;98805.06;5025631;28;20587;-64
2021/01/24 09:29:50;;;;;;;31.90;18.90;;;;;;;0.52;84.87;98813.69;5028455;28;20312;-68
2021/01/24 09:32:16;;;;;;;29.23;18.10;;;;;;;0.53;84.55;98818.84;5025071;28;20218;-65
2021/01/24 09:34:42;;;;;;;31.80;18.80;;;;;;;0.52;84.58;98819.78;5028815;28;20875;-67
2021/01/24 09:37:08;;;;;;;29.53;18.63;;;;;;;0.51;84.73;98820.72;5025980;28;20210;-66
2021/01/24 09:39:34;;;;;;;36.07;20.17;;;;;;;0.51;84.87;98825.94;5024669;28;20226;-67
2021/01/24 09:42:00;;;;;;;31.53;18.73;;;;;;;0.52;85.01;98827.63;5028069;28;20233;-67
2021/01/24 09:44:26;;;;;;;34.40;19.80;;;;;;;0.52;84.85;98838.13;5023669;28;20601;-68
2021/01/24 09:46:53;;;;;;;30.67;18.83;;;;;;;0.54;85.03;98838.84;5019241;28;20211;-67
2021/01/24 09:49:19;;;;;;;33.10;19.40;;;;;;;0.56;85.21;98842.25;5023703;28;20233;-66
2021/01/24 09:51:46;;;;;;;35.13;20.73;;;;;;;0.57;85.17;98838.72;5027705;28;20762;-67
2021/01/24 09:54:14;;;;;;;34.60;20.73;;;;;;;0.58;84.95;98847.41;5025197;28;20214;-66
2021/01/24 09:56:40;;;;;;;31.77;19.43;;;;;;;0.59;85.06;98841.25;5028039;28;20335;-66
2021/01/24 09:59:07;;;;;;;35.60;21.33;;;;;;;0.60;85.06;98840.31;5026200;28;20229;-66
2021/01/24 10:01:33;;;;;;;34.03;20.80;;;;;;;0.61;85.22;98845.50;5017591;28;20222;-65
2021/01/24 10:04:00;;;;;;;33.77;20.77;;;;;;;0.63;85.34;98842.78;5026120;28;20207;-67
2021/01/24 10:06:26;;;;;;;38.60;20.83;;;;;;;0.62;85.18;98841.09;5027888;28;20211;-66
2021/01/24 10:08:52;;;;;;;38.20;21.67;;;;;;;0.62;85.10;98844.56;5025318;28;20231;-67
2021/01/24 10:11:21;;;;;;;36.47;21.70;;;;;;;0.63;85.10;98853.25;5027441;28;20216;-68
2021/01/24 10:13:47;;;;;;;37.90;22.33;;;;;;;0.63;84.93;98850.66;5027521;28;20670;-68
2021/01/24 10:16:13;;;;;;;33.67;20.73;;;;;;;0.63;85.27;98859.34;5026767;28;20210;-67
2021/01/24 10:18:40;;;;;;;37.23;23.13;;;;;;;0.65;85.35;98857.50;5020756;28;20671;-66
2021/01/24 10:21:08;;;;;;;39.90;22.63;;;;;;;0.68;85.16;98861.75;5021561;28;20210;-67
2021/01/24 10:23:33;;;;;;;37.73;22.47;;;;;;;0.70;85.15;98857.28;5022754;28;20230;-67
2021/01/24 10:25:59;;;;;;;38.37;22.07;;;;;;;0.70;85.27;98867.75;5028603;28;20293;-67
2021/01/24 10:28:26;;;;;;;36.40;22.33;;;;;;;0.71;85.19;98866.00;5026663;28;20621;-67
2021/01/24 10:30:53;;;;;;;40.83;22.40;;;;;;;0.73;85.03;98866.72;5020370;28;20664;-67
2021/01/24 10:33:20;;;;;;;40.50;22.33;;;;;;;0.74;85.27;98877.13;5039699;28;20205;-68
2021/01/24 10:35:46;;;;;;;43.43;23.53;;;;;;;0.76;85.36;98875.28;5026376;28;20664;-67
2021/01/24 10:38:14;;;;;;;43.80;24.60;;;;;;;0.78;85.31;98876.06;5026757;28;20233;-67
2021/01/24 10:40:40;;;;;;;40.57;23.17;;;;;;;0.81;85.15;98877.66;5018323;28;20570;-67
2021/01/24 10:43:07;;;;;;;41.33;23.60;;;;;;;0.83;85.25;98884.53;5021128;28;20710;-66
2021/01/24 10:45:34;;;;;;;41.53;23.77;;;;;;;0.86;85.39;98887.00;5023485;28;20198;-65
2021/01/24 10:48:01;;;;;;;49.43;24.77;;;;;;;0.87;85.39;98893.94;5019822;28;20210;-67
2021/01/24 10:50:28;;;;;;;41.80;24.07;;;;;;;0.91;85.63;98889.34;5017719;28;20241;-66
2021/01/24 10:52:54;;;;;;;43.27;24.57;;;;;;;0.93;85.37;98893.59;5014532;28;20211;-67
2021/01/24 10:55:21;;;;;;;40.50;23.20;;;;;;;0.96;85.35;98893.44;5018818;28;20207;-65
2021/01/24 10:57:47;;;;;;;39.77;23.23;;;;;;;0.98;85.29;98899.44;5021123;28;20199;-67
2021/01/24 11:00:14;;;;;;;41.40;22.90;;;;;;;1.01;85.59;98898.44;5024380;28;21041;-64
2021/01/24 11:02:41;;;;;;;40.57;24.03;;;;;;;1.05;85.60;98907.84;5021885;28;20223;-68
2021/01/24 11:05:07;;;;;;;42.03;23.90;;;;;;;1.07;85.63;98905.16;5019680;28;20265;-67
2021/01/24 11:07:33;;;;;;;40.63;23.07;;;;;;;1.10;85.52;98908.44;5029927;28;20207;-67
2021/01/24 11:09:59;;;;;;;39.77;22.73;;;;;;;1.12;85.27;98918.84;5025379;28;20707;-66
2021/01/24 11:12:27;;;;;;;39.80;24.03;;;;;;;1.13;85.35;98913.53;5024489;28;20745;-67
2021/01/24 11:14:53;;;;;;;43.60;25.90;;;;;;;1.15;85.72;98922.16;5025894;28;20211;-66
2021/01/24 11:17:19;;;;;;;44.90;25.57;;;;;;;1.17;85.49;98920.31;5024555;28;20206;-67
2021/01/24 11:19:50;;;;;;;41.90;25.03;;;;;;;1.18;85.70;98923.78;5027230;28;20233;-67
2021/01/24 11:22:16;;;;;;;42.57;24.97;;;;;;;1.21;85.73;98932.34;5021548;28;20234;-65
2021/01/24 11:24:42;;;;;;;41.63;25.40;;;;;;;1.22;85.34;98923.53;5014998;28;20217;-64
2021/01/24 11:27:08;;;;;;;44.83;25.77;;;;;;;1.24;85.54;98929.56;5021282;28;20301;-67
2021/01/24 11:29:35;;;;;;;48.50;25.87;;;;;;;1.27;85.65;98929.38;5027719;28;20641;-67